2VA6 weather

Arrowhead Point Airport
Saluda, Virginia, United States

Public forecast

Using degrees Fahrenheit for public forecast. Weather courtesy of forecast.io.

Closest aviation weather report (METAR) to Arrowhead Point Airport

Closest report is Middle Peninsula Regional Airport, 9.9 nm (18.4 km) SW. Retrieved 2019/10/21 06:35 UTC (0 seconds ago):

KFYJ 210635Z AUTO 33003KT 10SM SCT006 OVC009 14/13 A2997 RMK AO1 T01360132

Closest aviation forecast (TAF) to Arrowhead Point Airport

Forecast is more than 12 hours old.

Closest forecast is Felker Army Air Field, 29.5 nm (54.6 km) S. Retrieved 2019/10/18 18:54 UTC (2 days ago):

TAF TAF KFAF 181800Z 1818/1924 32010G15KT 9999 FEW040 QNH2997INS BECMG 1822/1823 VRB06KT 9999 SKC QNH3003INS TX18/1917Z TN09/1906Z LAST NO AMDS AFT 1903 NEXT 2110